createdAt,value
2019-02-16T00:01:20.077Z,49.50
2019-02-16T00:04:12.405Z,49.30
2019-02-16T00:07:05.002Z,49.30
2019-02-16T00:09:57.598Z,49.40
2019-02-16T00:12:50.142Z,49.40
2019-02-16T00:15:43.083Z,49.40
2019-02-16T00:18:37.091Z,49.30
2019-02-16T00:21:29.670Z,49.60
2019-02-16T00:24:22.311Z,49.50
2019-02-16T00:27:14.846Z,49.30
2019-02-16T00:30:07.887Z,49.40
2019-02-16T00:33:00.594Z,49.70
2019-02-16T00:35:54.217Z,49.70
2019-02-16T00:38:46.835Z,49.50
2019-02-16T00:41:39.217Z,49.60
2019-02-16T00:44:31.902Z,49.50
2019-02-16T00:47:24.597Z,49.60
2019-02-16T00:50:16.844Z,49.70
2019-02-16T00:53:09.643Z,49.60
2019-02-16T00:56:02.284Z,49.50
2019-02-16T00:58:55.038Z,49.60
2019-02-16T01:01:48.089Z,49.40
2019-02-16T01:04:41.010Z,49.40
2019-02-16T01:07:33.759Z,49.70
2019-02-16T01:10:26.619Z,49.70
2019-02-16T01:13:19.295Z,49.80
2019-02-16T01:16:12.198Z,49.70
2019-02-16T01:19:05.329Z,49.70
2019-02-16T01:21:58.122Z,49.50
2019-02-16T01:24:50.856Z,49.50
2019-02-16T01:27:43.782Z,49.40
2019-02-16T01:30:36.554Z,49.10
2019-02-16T01:33:29.766Z,49.30
2019-02-16T01:36:22.426Z,49.70
2019-02-16T01:39:15.193Z,49.70
2019-02-16T01:42:08.188Z,49.90
2019-02-16T01:45:00.932Z,49.90
2019-02-16T01:47:53.514Z,50.20
2019-02-16T01:50:46.091Z,49.90
2019-02-16T01:53:39.123Z,50.10
2019-02-16T01:56:32.300Z,50.10
2019-02-16T01:59:25.310Z,50.30
2019-02-16T02:02:18.625Z,50.30
2019-02-16T02:05:11.694Z,50.30
2019-02-16T02:08:05.313Z,50.10
2019-02-16T02:10:58.184Z,50.20
2019-02-16T02:13:51.631Z,50.50
2019-02-16T02:16:45.359Z,50.30
2019-02-16T02:19:38.830Z,51.10
2019-02-16T02:22:32.107Z,51.70
2019-02-16T02:25:25.160Z,52.30
2019-02-16T02:28:18.149Z,53.10
2019-02-16T02:31:11.141Z,52.80
2019-02-16T02:34:04.129Z,52.70
2019-02-16T02:36:57.004Z,52.10
2019-02-16T02:39:49.592Z,51.90
2019-02-16T02:42:42.404Z,51.50
2019-02-16T02:45:35.751Z,51.30
2019-02-16T02:48:28.554Z,51.50
2019-02-16T02:51:21.231Z,51.80
2019-02-16T02:54:13.990Z,51.80
2019-02-16T02:57:07.057Z,51.70
2019-02-16T03:00:00.812Z,51.80
2019-02-16T03:02:53.875Z,51.50
2019-02-16T03:05:46.764Z,51.40
2019-02-16T03:08:39.448Z,51.50
2019-02-16T03:11:32.780Z,51.20
2019-02-16T03:14:25.557Z,51.30
2019-02-16T03:17:18.664Z,51.40
2019-02-16T03:20:11.851Z,51.40
2019-02-16T03:23:20.664Z,51.20
2019-02-16T03:26:34.440Z,51.30
2019-02-16T03:29:48.952Z,51.10
2019-02-16T03:33:03.142Z,51.20
2019-02-16T03:36:13.273Z,51.20
2019-02-16T03:39:11.087Z,51.00
2019-02-16T03:42:03.986Z,51.00
2019-02-16T03:44:57.166Z,50.80
2019-02-16T03:47:49.947Z,50.90
2019-02-16T03:50:42.784Z,50.80
2019-02-16T03:53:33.352Z,50.30
2019-02-16T03:59:16.525Z,51.10
2019-02-16T04:02:09.219Z,50.60
2019-02-16T04:05:02.333Z,50.70
2019-02-16T04:07:54.851Z,50.70
2019-02-16T04:10:48.294Z,50.30
2019-02-16T04:13:41.481Z,50.50
2019-02-16T04:16:34.529Z,50.50
2019-02-16T04:19:27.202Z,50.50
2019-02-16T04:22:24.548Z,50.70
2019-02-16T04:25:14.115Z,50.70
2019-02-16T04:28:07.305Z,50.70
2019-02-16T04:31:00.140Z,50.60
2019-02-16T04:33:52.940Z,50.30
2019-02-16T04:36:46.045Z,50.50
2019-02-16T04:39:39.212Z,50.30
2019-02-16T04:42:32.772Z,50.40
2019-02-16T04:45:25.840Z,49.90
2019-02-16T04:48:19.269Z,49.60
2019-02-16T04:51:15.243Z,50.20
2019-02-16T04:54:13.657Z,50.30
2019-02-16T04:57:11.669Z,50.70
2019-02-16T05:00:04.897Z,49.90
2019-02-16T05:02:58.259Z,50.00
2019-02-16T05:05:51.206Z,49.80
2019-02-16T05:08:48.764Z,49.60
2019-02-16T05:11:41.181Z,49.90
2019-02-16T05:14:37.465Z,49.90
2019-02-16T05:17:44.427Z,49.80
2019-02-16T05:24:22.090Z,49.30
2019-02-16T05:30:30.000Z,49.60
2019-02-16T05:37:48.308Z,49.90
2019-02-16T11:25:45.822Z,48.80
2019-02-16T11:28:59.447Z,48.90
2019-02-16T11:32:06.172Z,49.00
2019-02-16T11:35:15.247Z,48.90
2019-02-16T11:38:23.930Z,48.80
2019-02-16T11:41:32.830Z,48.80
2019-02-16T11:44:34.133Z,49.00
2019-02-16T11:47:55.176Z,49.10
2019-02-16T11:51:06.956Z,49.20
2019-02-16T11:54:26.553Z,49.10
2019-02-16T11:57:45.414Z,49.10
2019-02-16T12:00:40.223Z,49.30
2019-02-16T12:04:04.778Z,49.20
2019-02-16T12:07:07.937Z,49.10
2019-02-16T12:10:27.648Z,49.20
2019-02-16T12:13:42.494Z,49.30
2019-02-16T12:17:02.692Z,49.20
2019-02-16T12:20:09.208Z,49.10
2019-02-16T12:23:12.528Z,49.10
2019-02-16T12:26:15.210Z,49.10
2019-02-16T12:29:28.058Z,49.20
2019-02-16T12:32:31.367Z,49.40
2019-02-16T12:35:48.074Z,49.40
2019-02-16T12:38:54.744Z,49.60
2019-02-16T12:41:55.439Z,49.60
2019-02-16T12:45:07.586Z,49.80
2019-02-16T12:48:24.363Z,49.90
2019-02-16T12:51:34.203Z,49.90
2019-02-16T12:54:43.370Z,50.10
2019-02-16T12:58:03.447Z,50.40
2019-02-16T13:01:13.125Z,50.40
2019-02-16T13:04:23.957Z,50.40
2019-02-16T13:07:34.493Z,50.40
2019-02-16T13:10:44.703Z,50.20
2019-02-16T13:13:45.281Z,50.40
2019-02-16T13:17:14.397Z,50.20
2019-02-16T13:20:23.941Z,50.10
2019-02-16T13:23:28.535Z,50.40
2019-02-16T13:26:39.075Z,50.50
2019-02-16T13:29:56.283Z,50.40
2019-02-16T13:33:08.598Z,51.00
2019-02-16T13:36:18.293Z,50.80
2019-02-16T13:39:25.287Z,51.10
2019-02-16T13:42:27.274Z,50.90
2019-02-16T13:45:37.983Z,50.90
2019-02-16T13:48:51.954Z,50.80
2019-02-16T13:52:17.963Z,50.80
2019-02-16T13:55:19.800Z,51.40
2019-02-16T13:58:33.870Z,51.30
2019-02-16T14:01:43.591Z,50.70
2019-02-16T14:04:46.473Z,50.50
2019-02-16T14:08:03.594Z,50.60
2019-02-16T14:11:11.315Z,50.80
2019-02-16T14:14:22.558Z,50.40
2019-02-16T14:17:33.205Z,50.60
2019-02-16T14:20:25.919Z,50.50
2019-02-16T14:23:18.900Z,50.60
2019-02-16T14:26:11.561Z,50.80
2019-02-16T14:29:04.313Z,50.80
2019-02-16T14:31:57.351Z,50.70
2019-02-16T14:34:50.218Z,50.70
2019-02-16T14:37:52.992Z,50.60
2019-02-16T14:40:45.680Z,50.40
2019-02-16T14:43:38.321Z,50.60
2019-02-16T14:46:30.869Z,50.60
2019-02-16T14:49:24.096Z,50.50
2019-02-16T14:52:16.995Z,50.60
2019-02-16T14:55:11.684Z,50.70
2019-02-16T14:58:05.711Z,50.60
2019-02-16T15:01:01.116Z,50.60
2019-02-16T15:03:54.113Z,50.40
2019-02-16T15:06:47.245Z,50.40
2019-02-16T15:09:40.184Z,50.40
2019-02-16T15:12:33.534Z,50.40
2019-02-16T15:15:27.975Z,50.30
2019-02-16T15:18:20.429Z,50.40
2019-02-16T15:21:14.180Z,50.40
2019-02-16T15:24:07.237Z,50.40
2019-02-16T15:27:00.591Z,50.30
2019-02-16T15:29:54.612Z,50.40
2019-02-16T15:32:47.973Z,50.40
2019-02-16T15:35:41.011Z,50.30
2019-02-16T15:38:34.469Z,50.40
2019-02-16T15:41:27.747Z,50.20
2019-02-16T15:44:20.937Z,50.40
2019-02-16T15:47:13.876Z,50.70
2019-02-16T15:50:08.172Z,50.50
2019-02-16T15:53:01.483Z,50.50
2019-02-16T15:55:54.636Z,50.70
2019-02-16T15:58:51.065Z,50.50
2019-02-16T16:01:44.745Z,50.50
2019-02-16T16:04:37.715Z,50.40
2019-02-16T16:07:30.089Z,50.70
2019-02-16T16:10:36.579Z,50.70
2019-02-16T16:13:39.109Z,50.40
2019-02-16T16:16:41.033Z,50.40
2019-02-16T16:19:42.827Z,50.50
2019-02-16T16:22:56.790Z,50.40
2019-02-16T16:26:18.806Z,50.50
2019-02-16T16:29:27.792Z,50.50
2019-02-16T16:32:28.936Z,50.40
2019-02-16T16:35:32.875Z,50.40
2019-02-16T16:38:49.247Z,50.30
2019-02-16T16:42:05.789Z,50.50
2019-02-16T16:45:17.010Z,50.40
2019-02-16T16:48:25.772Z,50.30
2019-02-16T16:54:48.049Z,50.50
2019-02-16T16:57:58.941Z,50.70
2019-02-16T17:01:27.720Z,51.30
2019-02-16T17:04:38.378Z,51.20
2019-02-16T17:07:39.505Z,50.60
2019-02-16T17:10:57.819Z,51.00
2019-02-16T17:14:08.132Z,51.00
2019-02-16T17:17:28.011Z,50.80
2019-02-16T17:20:47.743Z,50.80
2019-02-16T17:23:56.675Z,50.30
2019-02-16T17:27:18.863Z,50.40
2019-02-16T17:30:35.876Z,50.70
2019-02-16T17:33:46.204Z,50.50
2019-02-16T17:37:12.268Z,50.70
2019-02-16T17:43:23.352Z,50.70
2019-02-16T17:46:26.686Z,50.80
2019-02-16T17:49:46.037Z,51.00
2019-02-16T17:53:12.352Z,50.90
2019-02-16T17:56:32.053Z,50.60
2019-02-16T17:59:34.497Z,50.80
2019-02-16T18:02:45.684Z,51.00
2019-02-16T18:06:02.229Z,51.30
2019-02-16T18:09:14.637Z,50.90
2019-02-16T18:12:21.467Z,50.70
2019-02-16T18:15:47.493Z,51.00
2019-02-16T18:18:48.933Z,50.90
2019-02-16T18:21:46.915Z,51.10
2019-02-16T18:24:54.928Z,51.20
2019-02-16T18:28:03.596Z,51.50
2019-02-16T18:31:11.068Z,51.40
2019-02-16T18:34:21.027Z,51.20
2019-02-16T18:37:26.832Z,51.30
2019-02-16T18:40:37.831Z,51.50
2019-02-16T18:43:54.835Z,51.30
2019-02-16T18:47:04.470Z,51.10
2019-02-16T18:50:13.578Z,51.50
2019-02-16T18:53:27.728Z,51.40
2019-02-16T18:56:50.904Z,51.30
2019-02-16T18:59:51.226Z,51.50
2019-02-16T19:03:04.674Z,51.40
2019-02-16T19:06:11.635Z,51.40
2019-02-16T19:09:23.085Z,51.40
2019-02-16T19:12:42.642Z,51.40
2019-02-16T19:15:53.724Z,51.40
2019-02-16T19:19:03.051Z,51.50
2019-02-16T19:22:13.486Z,51.60
2019-02-16T19:25:14.653Z,51.70
2019-02-16T19:28:31.917Z,51.80
2019-02-16T19:31:42.174Z,51.80
2019-02-16T19:34:47.945Z,51.70
2019-02-16T19:38:01.329Z,51.50
2019-02-16T19:41:00.546Z,51.70
2019-02-16T19:44:04.606Z,51.90
2019-02-16T19:47:13.690Z,51.90
2019-02-16T19:50:24.494Z,51.90
2019-02-16T19:53:35.345Z,51.70
2019-02-16T19:56:42.649Z,51.60
2019-02-16T19:59:51.988Z,51.60
2019-02-16T20:03:08.476Z,52.00
2019-02-16T20:06:22.477Z,51.90
2019-02-16T20:09:18.749Z,52.20
2019-02-16T20:12:32.389Z,52.50
2019-02-16T20:15:40.978Z,52.00
2019-02-16T20:18:50.856Z,51.90
2019-02-16T20:22:00.826Z,52.00
2019-02-16T20:25:16.114Z,51.90
2019-02-16T20:28:16.856Z,51.70
2019-02-16T20:31:22.778Z,51.90
2019-02-16T20:34:39.124Z,51.60
2019-02-16T20:37:39.557Z,51.80
2019-02-16T20:40:48.822Z,51.80
2019-02-16T20:44:02.717Z,51.90
2019-02-16T20:47:21.793Z,51.90
2019-02-16T20:50:24.375Z,52.00
2019-02-16T20:53:33.538Z,51.90
2019-02-16T20:56:35.398Z,51.70
2019-02-16T20:59:44.320Z,52.00
2019-02-16T21:02:49.237Z,52.10
2019-02-16T21:06:06.020Z,51.70
2019-02-16T21:09:09.231Z,51.80
2019-02-16T21:12:35.393Z,51.90
2019-02-16T21:15:35.937Z,52.00
2019-02-16T21:18:44.621Z,51.90
2019-02-16T21:21:54.560Z,52.00
2019-02-16T21:25:14.729Z,52.10
2019-02-16T21:28:43.492Z,52.20
2019-02-16T21:32:03.429Z,52.00
2019-02-16T21:35:12.659Z,52.20
2019-02-16T21:38:12.228Z,52.20
2019-02-16T21:41:21.086Z,52.30
2019-02-16T21:44:26.473Z,52.30
2019-02-16T21:47:49.606Z,52.30
2019-02-16T21:51:15.187Z,52.30
2019-02-16T21:54:25.458Z,52.30
2019-02-16T21:57:38.847Z,52.30
2019-02-16T22:00:53.008Z,52.40
2019-02-16T22:04:03.734Z,52.30
2019-02-16T22:07:12.472Z,52.30
2019-02-16T22:10:14.057Z,52.30
2019-02-16T22:13:06.446Z,52.30
2019-02-16T22:16:00.164Z,52.20
2019-02-16T22:18:52.699Z,52.30
2019-02-16T22:21:46.315Z,52.30
2019-02-16T22:24:38.867Z,52.20
2019-02-16T22:27:32.023Z,52.40
2019-02-16T22:30:24.917Z,52.30
2019-02-16T22:33:17.494Z,53.10
2019-02-16T22:36:09.890Z,52.40
2019-02-16T22:39:02.482Z,52.40
2019-02-16T22:41:56.004Z,52.70
2019-02-16T22:44:48.478Z,52.40
2019-02-16T22:47:41.646Z,52.40
2019-02-16T22:50:34.622Z,52.40
2019-02-16T22:53:27.406Z,52.40
2019-02-16T22:56:20.017Z,52.40
2019-02-16T22:59:13.023Z,52.30
2019-02-16T23:02:06.064Z,52.40
2019-02-16T23:04:58.904Z,52.40
2019-02-16T23:07:51.592Z,52.20
2019-02-16T23:10:44.262Z,52.40
2019-02-16T23:13:36.770Z,52.40
2019-02-16T23:16:29.560Z,52.10
2019-02-16T23:19:22.457Z,52.00
2019-02-16T23:22:15.001Z,52.10
2019-02-16T23:25:08.216Z,52.20
2019-02-16T23:28:00.829Z,52.10
2019-02-16T23:30:53.240Z,52.10
2019-02-16T23:33:45.865Z,52.00
2019-02-16T23:36:38.507Z,52.20
2019-02-16T23:39:31.304Z,52.30
2019-02-16T23:42:24.192Z,52.30
2019-02-16T23:45:16.495Z,52.30
2019-02-16T23:48:08.907Z,52.50
2019-02-16T23:51:01.529Z,52.40
2019-02-16T23:53:54.448Z,52.40
2019-02-16T23:56:47.387Z,52.30
2019-02-16T23:59:41.845Z,52.10
